• Join FlightAware (Why Join?)
  • Login
  • US Flag 
10:04AM EDT


 

Airport Tracker/Info


-or-


 

Live Flight TrackerFlight Track Log ✈ N70AG ✈ 13-May-2013 ✈ KHIO - KSAN

Flight Track Log - Related Links

Times and Time Zones

All times are in EDT time to prevent confusion due to time zone crossing. See the N70AG flight status page for this flight to view local times or setup timezone preferences in your user account.

Time Position Orientation Groundspeed Altitude Reporting Facility
EDT Latitude Longitude Course Direction KTS MPH feet Rate Location/Type
05:38PM 45.4903 -122.9519 159° South 182 209 3,600  Level Seattle Center
05:39PM 45.4292 -122.9792 197° South 226 260 7,300 3,540 Climbing Seattle Center
05:40PM 44.8840 -122.5927 159° South  Level Estimated
05:40PM 45.3639 -123.0017 194° South 239 275 10,800  Level Seattle Center
05:41PM 44.7745 -122.5339 159° South  Level Estimated
05:41PM 45.2833 -123.0278 193° South 291 335 13,100  Level Seattle Center
05:42PM 44.6649 -122.4753 159° South  Level Estimated
05:42PM 45.1892 -123.0172 175° South 334 384 15,900  Level Seattle Center
05:43PM 44.5553 -122.4169 159° South  Level Estimated
05:43PM 45.0922 -122.9667 160° South 366 421 18,900  Level Seattle Center
05:44PM 44.9925 -122.9189 161° South 373 429 21,600 2,340 Climbing Seattle Center
05:45PM 44.8856 -122.8653 160° South 404 465 23,700 2,040 Climbing Seattle Center
05:46PM 44.7747 -122.8119 161° South 415 478 25,800 1,860 Climbing Seattle Center
05:47PM 44.6572 -122.7556 161° South 439 505 27,600 2,040 Climbing Seattle Center
05:48PM 44.5375 -122.6978 161° South 453 521 30,000 2,340 Climbing Seattle Center
05:49PM 44.4022 -122.6347 162° South 451 519 32,400 3,000 Climbing Seattle Center
05:50PM 44.2883 -122.5814 161° South 432 497 36,200 2,400 Climbing Seattle Center
05:51PM 44.1839 -122.5314 161° South 400 460 37,300 780 Climbing Seattle Center
05:52PM 44.0725 -122.4783 161° South 417 480 37,800 780 Climbing Seattle Center
05:53PM 43.9608 -122.4261 161° South 420 483 39,000 540 Climbing Seattle Center
05:54PM 43.8492 -122.3753 162° South 420 483 39,000  Level Seattle Center
05:55PM 43.7347 -122.3231 162° South 429 494 39,000  Level Seattle Center
05:56PM 43.6211 -122.2717 162° South 428 493 39,000  Level Seattle Center
05:57PM 43.5092 -122.2194 161° South 426 490 39,000  Level Seattle Center
05:58PM 43.3989 -122.1689 162° South 421 484 39,000  Level Seattle Center
06:00PM 43.2178 -122.0875 162° South 423 487 39,000  Level Oakland Center
06:00PM 43.1714 -122.0681 163° South 428 493 39,000  Level Seattle Center
06:01PM 43.0561 -122.0153 162° South 432 497 39,000  Level Seattle Center
06:02PM 42.9394 -121.9647 162° South 438 504 39,000  Level Seattle Center
06:03PM 42.8225 -121.9119 162° South 441 507 39,000  Level Seattle Center
06:04PM 42.6831 -121.8489 162° South 440 506 39,000  Level Seattle Center
06:05PM 42.5675 -121.7972 162° South 437 503 39,000  Level Seattle Center
06:06PM 42.4531 -121.7461 162° South 434 499 39,000  Level Seattle Center
06:08PM 42.3356 -121.6947 162° South 438 504 39,000  Level Seattle Center
06:09PM 42.2164 -121.6417 162° South 444 511 39,000  Level Seattle Center
06:10PM 42.0969 -121.5897 162° South 445 512 39,000  Level Seattle Center
06:11PM 41.9761 -121.5372 162° South 449 517 39,000  Level Seattle Center
06:12PM 41.8547 -121.4853 162° South 454 522 39,000  Level Seattle Center
06:13PM 41.7347 -121.4331 162° South 451 519 39,000  Level Seattle Center
06:14PM 41.6175 -121.3825 162° South 445 512 39,000  Level Seattle Center
06:15PM 41.4992 -121.3325 162° South 444 511 39,000  Level Seattle Center
06:16PM 41.3800 -121.2808 162° South 448 516 39,000  Level Seattle Center
06:17PM 41.2617 -121.2311 162° South 446 513 39,000  Level Seattle Center
06:18PM 41.1428 -121.1808 162° South 448 516 39,000  Level Seattle Center
06:19PM 41.0228 -121.1294 162° South 451 519 39,000  Level Seattle Center
06:20PM 40.9025 -121.0789 162° South 453 521 39,000  Level Seattle Center
06:21PM 40.7822 -121.0269 162° South 454 522 39,000  Level Seattle Center
06:22PM 40.6631 -120.9775 163° South 450 518 39,000  Level Seattle Center
06:22PM 40.5686 -120.9369 162° South 448 516 39,000  Level Oakland Center
06:23PM 40.4433 -120.8858 163° South 445 512 39,000  Level Oakland Center
06:24PM 40.3242 -120.8375 163° South 446 513 39,000  Level Oakland Center
06:25PM 40.2036 -120.7875 162° South 451 519 39,000  Level Oakland Center
06:26PM 40.0808 -120.7378 163° South 459 528 39,000  Level Oakland Center
06:28PM 39.9672 -120.6911 163° South 457 526 39,000  Level Oakland Center
06:29PM 39.8450 -120.6419 163° South 459 528 39,000  Level Oakland Center
06:30PM 39.7228 -120.5917 162° South 458 527 39,000  Level Oakland Center
06:31PM 39.5761 -120.5342 163° South 458 527 39,000  Level Oakland Center
06:32PM 39.4536 -120.4842 163° South 458 527 39,000  Level Oakland Center
06:33PM 39.3297 -120.4353 163° South 462 532 39,000  Level Oakland Center
06:34PM 39.2053 -120.3844 162° South 466 536 39,000  Level Oakland Center
06:35PM 39.0814 -120.3353 163° South 463 533 39,000  Level Oakland Center
06:36PM 38.9583 -120.2878 163° South 461 531 39,000  Level Oakland Center
06:37PM 38.8347 -120.2383 163° South 462 532 39,000  Level Oakland Center
06:38PM 38.7092 -120.1892 163° South 465 535 39,000  Level Oakland Center
06:39PM 38.5850 -120.1419 163° South 463 533 39,000  Level Oakland Center
06:40PM 38.4631 -120.0922 162° South 461 531 39,000  Level Oakland Center
06:41PM 38.3386 -120.0456 164° South 461 531 39,000  Level Oakland Center
06:42PM 38.2144 -119.9975 163° South 462 532 39,000  Level Oakland Center
06:43PM 38.0925 -119.9475 162° South 461 531 39,000  Level Oakland Center
06:44PM 37.9697 -119.9006 163° South 460 529 39,000  Level Oakland Center
06:45PM 37.8192 -119.8433 163° South 466 536 39,000  Level Oakland Center
06:46PM 37.6928 -119.7961 164° South 470 541 39,000  Level Oakland Center
06:47PM 37.5658 -119.7506 164° South 475 547 39,000  Level Oakland Center
06:48PM 37.4408 -119.7033 163° South 467 537 39,000  Level Oakland Center
06:49PM 37.3231 -119.6572 163° South 464 534 39,000  Level Oakland Center
06:50PM 37.1983 -119.6097 163° South 467 537 39,000  Level Oakland Center
06:51PM 37.0742 -119.5619 163° South 465 535 39,000  Level Oakland Center
06:52PM 36.9486 -119.5136 163° South 471 542 39,000  Level Oakland Center
06:53PM 36.8225 -119.4653 163° South 474 545 39,000  Level Oakland Center
06:54PM 36.6714 -119.4100 164° South 471 542 39,000  Level Oakland Center
06:55PM 36.5450 -119.3625 163° South 473 544 39,000  Level Oakland Center
06:56PM 36.4183 -119.3150 163° South 474 545 39,000  Level Oakland Center
06:57PM 36.2917 -119.2692 164° South 474 545 39,000  Level Oakland Center
06:58PM 36.1656 -119.2231 164° South 472 543 39,000  Level Oakland Center
06:59PM 36.0378 -119.1772 164° South 477 549 39,000  Level Oakland Center
07:00PM 35.9128 -119.1344 165° South 465 535 39,000  Level Oakland Center
07:01PM 35.7853 -119.0883 164° South 472 543 39,000  Level Oakland Center
07:02PM 35.6564 -119.0406 163° South 479 551 39,000  Level Oakland Center
07:03PM 35.5272 -118.9942 164° South 478 550 39,000  Level Los Angeles Center
07:04PM 35.3983 -118.9472 163° South 480 552 39,000  Level Los Angeles Center
07:05PM 35.2700 -118.9017 164° South 480 552 39,000  Level Los Angeles Center
07:06PM 35.1408 -118.8558 164° South 480 552 39,000  Level Los Angeles Center
07:07PM 35.0089 -118.8089 164° South 489 563 39,000  Level Los Angeles Center
07:08PM 34.8886 -118.7539 159° South 484 557 39,000  Level Los Angeles Center
07:09PM 34.7456 -118.6569 151° Southeast 489 563 39,000  Level Los Angeles Center
07:10PM 34.6267 -118.5772 151° Southeast 488 562 39,000  Level Los Angeles Center
07:11PM 34.5067 -118.4975 151° Southeast 490 564 39,000  Level Los Angeles Center
07:12PM 34.3850 -118.4203 152° Southeast 493 567 39,000 -60 Level Los Angeles Center
07:13PM 34.2644 -118.3417 152° Southeast 491 565 38,900 -1,020 Descending Los Angeles Center
07:14PM 34.1472 -118.2631 151° Southeast 482 555 36,900 -1,980 Descending Los Angeles Center
07:15PM 34.0356 -118.1894 151° Southeast 461 531 34,900 -2,160 Descending Los Angeles Center
07:16PM 33.9000 -118.1008 152° Southeast 465 535 32,500 -2,220 Descending Los Angeles Center
07:18PM 33.7825 -118.0269 152° Southeast 471 542 30,400 -2,100 Descending Los Angeles Center
07:19PM 33.6683 -117.9528 152° Southeast 464 534 28,300 -2,220 Descending Los Angeles Center
07:20PM 33.5639 -117.8842 151° Southeast 437 503 25,900 -2,280 Descending Los Angeles Center
07:21PM 33.4608 -117.8203 153° Southeast 421 484 23,600 -2,220 Descending Los Angeles Center
07:22PM 33.3819 -117.7339 138° Southeast 390 449 21,400 -2,100 Descending Los Angeles Center
07:23PM 33.3097 -117.6419 133° Southeast 382 440 19,300 -2,100 Descending Los Angeles Center
07:24PM 33.2400 -117.5561 134° Southeast 370 426 17,200 -2,220 Descending Los Angeles Center
07:25PM 33.1461 -117.4753 144° Southeast 354 407 14,800 -2,160 Descending Los Angeles Center
07:26PM 33.0667 -117.4167 148° Southeast 328 377 12,700 -2,040 Descending Southern California TRACON
07:27PM 32.9833 -117.3500 146° Southeast 319 367 10,700 -2,040 Descending Southern California TRACON
07:28PM 32.9167 -117.3000 148° Southeast 311 358 8,700 -1,800 Descending Southern California TRACON
07:29PM 32.8500 -117.2333 140° Southeast 303 349 7,100 -1,260 Descending Southern California TRACON
07:30PM 32.8000 -117.1667 132° Southeast 268 308 6,200 -900 Descending Southern California TRACON
07:31PM 32.7833 -117.0833 103° East 247 284 5,400 -840 Descending Southern California TRACON
07:32PM 32.7500 -117.0167 121° Southeast 214 246 4,500 -1,080 Descending Southern California TRACON
07:33PM 32.7000 -117.0333 196° South 194 223 3,200 -1,200 Descending Southern California TRACON
07:34PM 32.7000 -117.0833 270° West 158 182 2,300 -1,080 Descending Southern California TRACON
07:35PM 32.7206 -117.1381 294° West 155 178 1,000 -1,020 Descending Los Angeles Center
07:36PM 32.7294 -117.1803 284° West 143 165 100 -900 Descending Los Angeles Center
07:38PM 32.7333 -117.1833 285° West  Level FlightAware Approximate
07:45PM 32.7336 -117.1897 285° West  Level Estimated